createdAt,value
2019-01-18T00:01:48.788Z,2.33
2019-01-18T00:05:52.219Z,2.20
2019-01-18T00:09:55.623Z,2.17
2019-01-18T00:13:59.050Z,2.50
2019-01-18T00:18:02.474Z,2.43
2019-01-18T00:22:05.967Z,2.53
2019-01-18T00:26:09.403Z,2.40
2019-01-18T00:30:19.038Z,2.47
2019-01-18T00:34:22.477Z,2.30
2019-01-18T00:38:25.902Z,2.60
2019-01-18T00:42:29.322Z,2.37
2019-01-18T00:46:32.782Z,2.40
2019-01-18T00:50:36.189Z,2.50
2019-01-18T00:54:39.614Z,2.67
2019-01-18T00:58:43.033Z,2.90
2019-01-18T01:02:46.537Z,2.53
2019-01-18T01:06:49.979Z,2.90
2019-01-18T01:10:53.409Z,2.70
2019-01-18T01:14:56.843Z,2.30
2019-01-18T01:19:00.261Z,2.30
2019-01-18T01:23:03.757Z,2.57
2019-01-18T01:27:07.208Z,2.47
2019-01-18T01:31:10.620Z,2.70
2019-01-18T01:35:14.124Z,2.50
2019-01-18T01:39:17.553Z,2.60
2019-01-18T01:43:20.980Z,2.70
2019-01-18T01:47:24.664Z,2.53
2019-01-18T01:51:28.092Z,2.70
2019-01-18T01:55:31.515Z,2.50
2019-01-18T01:59:35.212Z,2.70
2019-01-18T02:03:38.640Z,2.50
2019-01-18T02:07:42.053Z,2.70
2019-01-18T02:11:45.484Z,2.57
2019-01-18T02:15:48.916Z,2.50
2019-01-18T02:19:52.348Z,2.90
2019-01-18T02:23:55.785Z,2.50
2019-01-18T02:27:59.230Z,2.60
2019-01-18T02:32:02.658Z,3.00
2019-01-18T02:36:06.097Z,2.70
2019-01-18T02:40:11.937Z,2.97
2019-01-18T02:44:15.373Z,2.90
2019-01-18T02:48:18.783Z,2.87
2019-01-18T02:52:22.213Z,3.00
2019-01-18T02:56:25.644Z,3.33
2019-01-18T03:00:29.094Z,3.13
2019-01-18T03:04:32.528Z,3.20
2019-01-18T03:08:35.942Z,3.10
2019-01-18T03:12:39.441Z,3.00
2019-01-18T03:16:42.869Z,3.10
2019-01-18T03:20:46.304Z,3.47
2019-01-18T03:24:49.757Z,3.67
2019-01-18T03:28:54.668Z,3.87
2019-01-18T03:32:58.101Z,3.50
2019-01-18T03:37:01.531Z,3.90
2019-01-18T03:41:05.109Z,3.67
2019-01-18T03:45:14.502Z,3.63
2019-01-18T03:49:18.000Z,3.50
2019-01-18T03:53:21.620Z,3.53
2019-01-18T03:57:25.051Z,3.63
2019-01-18T04:01:28.476Z,3.40
2019-01-18T04:05:31.901Z,3.77
2019-01-18T04:09:35.344Z,3.70
2019-01-18T04:13:38.789Z,4.13
2019-01-18T04:17:42.206Z,4.20
2019-01-18T04:21:45.633Z,4.00
2019-01-18T04:25:49.055Z,4.20
2019-01-18T04:29:52.496Z,4.00
2019-01-18T04:33:56.042Z,3.60
2019-01-18T04:37:59.504Z,3.20
2019-01-18T04:42:02.923Z,3.50
2019-01-18T04:46:06.419Z,3.50
2019-01-18T04:50:15.064Z,3.40
2019-01-18T04:54:18.488Z,3.10
2019-01-18T04:58:21.976Z,3.70
2019-01-18T05:02:25.393Z,3.87
2019-01-18T05:06:28.833Z,3.70
2019-01-18T05:10:32.273Z,3.23
2019-01-18T05:14:35.721Z,4.00
2019-01-18T05:18:39.149Z,3.27
2019-01-18T05:22:42.561Z,3.60
2019-01-18T05:26:45.993Z,3.37
2019-01-18T05:30:49.422Z,3.27
2019-01-18T05:34:52.852Z,3.87
2019-01-18T05:38:56.270Z,3.60
2019-01-18T05:42:59.708Z,8.33
2019-01-18T05:47:03.139Z,3.60
2019-01-18T05:51:06.574Z,3.13
2019-01-18T05:55:10.680Z,3.60
2019-01-18T05:59:14.105Z,3.10
2019-01-18T06:03:17.536Z,3.23
2019-01-18T06:07:20.974Z,3.80
2019-01-18T06:11:24.570Z,3.70
2019-01-18T06:15:27.992Z,3.27
2019-01-18T06:19:31.419Z,3.13
2019-01-18T06:23:34.862Z,3.97
2019-01-18T06:27:38.305Z,4.23
2019-01-18T06:31:41.740Z,4.20
2019-01-18T06:35:45.166Z,4.50
2019-01-18T06:39:48.669Z,4.43
2019-01-18T06:43:52.871Z,4.60
2019-01-18T06:47:56.404Z,4.97
2019-01-18T06:51:59.844Z,4.87
2019-01-18T06:56:03.268Z,4.37
2019-01-18T07:00:09.797Z,4.20
2019-01-18T07:04:13.284Z,4.23
2019-01-18T07:08:16.719Z,3.80
2019-01-18T07:12:20.140Z,4.33
2019-01-18T07:16:23.574Z,4.73
2019-01-18T07:20:27.004Z,4.57
2019-01-18T07:24:30.433Z,4.80
2019-01-18T07:28:33.875Z,4.60
2019-01-18T07:32:37.284Z,4.80
2019-01-18T07:36:40.712Z,4.30
2019-01-18T07:40:44.140Z,4.77
2019-01-18T07:44:47.569Z,5.03
2019-01-18T07:48:51.012Z,40.53
2019-01-18T07:52:54.507Z,35.83
2019-01-18T07:56:57.960Z,22.93
2019-01-18T08:01:01.392Z,37.83
2019-01-18T08:05:07.480Z,12.67
2019-01-18T08:09:10.933Z,9.63
2019-01-18T08:13:14.348Z,8.27
2019-01-18T08:17:17.792Z,6.90
2019-01-18T08:21:21.228Z,6.10
2019-01-18T08:25:24.657Z,9.30
2019-01-18T08:29:28.100Z,7.00
2019-01-18T08:33:31.540Z,6.23
2019-01-18T08:37:34.972Z,6.33
2019-01-18T08:41:38.402Z,6.63
2019-01-18T08:45:44.781Z,8.33
2019-01-18T08:49:49.733Z,6.67
2019-01-18T08:53:53.163Z,6.50
2019-01-18T08:57:56.605Z,6.00
2019-01-18T09:02:00.057Z,6.33
2019-01-18T09:06:03.572Z,5.87
2019-01-18T09:10:12.952Z,5.40
2019-01-18T09:14:19.593Z,5.47
2019-01-18T09:18:21.532Z,5.77
2019-01-18T09:22:25.181Z,6.27
2019-01-18T09:26:28.612Z,6.07
2019-01-18T09:30:34.950Z,6.10
2019-01-18T09:34:38.361Z,5.67
2019-01-18T09:38:41.804Z,5.00
2019-01-18T09:42:45.323Z,4.97
2019-01-18T09:46:48.732Z,4.10
2019-01-18T09:50:52.164Z,4.90
2019-01-18T09:54:55.587Z,4.27
2019-01-18T09:58:59.016Z,4.60
2019-01-18T10:03:02.442Z,4.60
2019-01-18T10:07:05.861Z,3.80
2019-01-18T10:11:09.298Z,4.10
2019-01-18T10:15:15.556Z,3.53
2019-01-18T10:19:18.988Z,3.57
2019-01-18T10:23:22.476Z,3.80
2019-01-18T10:27:25.891Z,3.93
2019-01-18T10:31:29.330Z,3.17
2019-01-18T10:35:32.764Z,3.07
2019-01-18T10:39:36.285Z,3.30
2019-01-18T10:43:41.266Z,2.93
2019-01-18T10:47:45.020Z,3.20
2019-01-18T10:51:48.452Z,2.90
2019-01-18T10:55:51.884Z,2.93
2019-01-18T10:59:55.320Z,2.50
2019-01-18T11:03:58.749Z,2.97
2019-01-18T11:08:02.172Z,2.50
2019-01-18T11:12:05.683Z,2.60
2019-01-18T11:16:09.161Z,2.80
2019-01-18T11:20:24.500Z,2.67
2019-01-18T11:24:27.925Z,2.53
2019-01-18T11:28:31.360Z,2.77
2019-01-18T11:32:34.792Z,2.87
2019-01-18T11:36:38.224Z,2.80
2019-01-18T11:40:41.666Z,3.00
2019-01-18T11:44:45.060Z,2.50
2019-01-18T11:48:50.396Z,2.57
2019-01-18T11:52:53.648Z,2.63
2019-01-18T11:56:57.081Z,2.70
2019-01-18T12:01:00.513Z,2.93
2019-01-18T12:05:05.379Z,2.90
2019-01-18T12:09:08.872Z,3.03
2019-01-18T12:13:12.315Z,2.67
2019-01-18T12:17:15.749Z,3.00
2019-01-18T12:21:19.168Z,2.70
2019-01-18T12:25:22.588Z,3.17
2019-01-18T12:29:26.025Z,2.80
2019-01-18T12:33:29.457Z,2.53
2019-01-18T12:37:32.916Z,5.40
2019-01-18T12:41:36.327Z,4.13
2019-01-18T12:45:39.758Z,3.00
2019-01-18T12:49:43.185Z,3.70
2019-01-18T12:53:46.612Z,2.60
2019-01-18T12:57:50.058Z,2.10
2019-01-18T13:01:53.467Z,2.10
2019-01-18T13:05:56.892Z,2.50
2019-01-18T13:10:00.322Z,2.20
2019-01-18T13:14:05.281Z,2.50
2019-01-18T13:18:08.924Z,2.60
2019-01-18T13:22:12.340Z,2.70
2019-01-18T13:26:15.770Z,2.03
2019-01-18T13:30:19.850Z,2.20
2019-01-18T13:34:23.276Z,2.00
2019-01-18T13:38:26.724Z,2.43
2019-01-18T13:42:30.147Z,2.00
2019-01-18T13:46:33.657Z,2.20
2019-01-18T13:50:37.091Z,2.10
2019-01-18T13:54:40.522Z,2.60
2019-01-18T13:58:43.945Z,2.67
2019-01-18T14:02:48.573Z,2.70
2019-01-18T14:06:52.484Z,3.50
2019-01-18T14:10:55.986Z,3.30
2019-01-18T14:14:59.669Z,3.43
2019-01-18T14:19:03.088Z,4.83
2019-01-18T14:23:06.520Z,3.00
2019-01-18T14:27:09.943Z,2.63
2019-01-18T14:31:13.382Z,2.70
2019-01-18T14:35:16.884Z,2.50
2019-01-18T14:39:20.312Z,2.83
2019-01-18T14:43:23.744Z,3.17
2019-01-18T14:47:27.185Z,3.50
2019-01-18T14:51:30.616Z,3.33
2019-01-18T14:55:35.172Z,4.60
2019-01-18T14:59:38.599Z,4.77
2019-01-18T15:03:42.029Z,4.30
2019-01-18T15:07:45.468Z,6.70
2019-01-18T15:11:48.901Z,7.80
2019-01-18T15:15:52.333Z,8.40
2019-01-18T15:19:55.767Z,7.40
2019-01-18T15:23:59.188Z,6.40
2019-01-18T15:28:02.620Z,4.10
2019-01-18T15:32:06.058Z,3.70
2019-01-18T15:36:09.499Z,3.10
2019-01-18T15:40:19.018Z,4.17
2019-01-18T15:44:22.456Z,6.30
2019-01-18T15:48:25.884Z,5.50
2019-01-18T15:52:29.308Z,5.93
2019-01-18T15:56:32.741Z,5.30
2019-01-18T16:00:41.256Z,5.20
2019-01-18T16:04:44.685Z,5.57
2019-01-18T16:08:48.124Z,6.05
2019-01-18T16:12:51.691Z,5.20
2019-01-18T16:16:55.678Z,5.43
2019-01-18T16:20:59.120Z,6.13
2019-01-18T16:25:02.656Z,7.00
2019-01-18T16:29:06.138Z,5.50
2019-01-18T16:33:09.607Z,6.57
2019-01-18T16:37:13.042Z,7.37
2019-01-18T16:41:16.481Z,6.40
2019-01-18T16:45:19.985Z,7.80
2019-01-18T16:49:23.413Z,6.80
2019-01-18T16:53:26.847Z,7.73
2019-01-18T16:57:30.285Z,8.10
2019-01-18T17:01:33.716Z,8.97
2019-01-18T17:05:37.153Z,6.97
2019-01-18T17:09:40.591Z,7.40
2019-01-18T17:13:44.033Z,9.60
2019-01-18T17:17:47.477Z,7.03
2019-01-18T17:21:50.905Z,8.33
2019-01-18T17:25:55.261Z,8.40
2019-01-18T17:29:58.912Z,8.67
2019-01-18T17:34:02.428Z,9.37
2019-01-18T17:38:17.929Z,10.23
2019-01-18T17:42:27.108Z,9.97
2019-01-18T17:46:54.645Z,9.07
2019-01-18T17:51:23.764Z,9.17
2019-01-18T17:55:50.609Z,8.63
2019-01-18T18:00:16.395Z,9.67
2019-01-18T18:04:40.878Z,11.17
2019-01-18T18:09:02.780Z,11.07
2019-01-18T18:13:30.988Z,11.60
2019-01-18T18:17:40.372Z,10.73
2019-01-18T18:22:15.514Z,11.37
2019-01-18T18:26:33.939Z,10.73
2019-01-18T18:30:40.433Z,11.33
2019-01-18T18:34:58.710Z,10.63
2019-01-18T18:39:13.984Z,10.60
2019-01-18T18:43:41.636Z,11.37
2019-01-18T18:48:00.124Z,10.53
2019-01-18T18:52:23.255Z,11.40
2019-01-18T18:56:46.132Z,10.53
2019-01-18T19:01:01.345Z,11.20
2019-01-18T19:05:07.858Z,11.10
2019-01-18T19:09:31.664Z,10.97
2019-01-18T19:13:57.425Z,11.70
2019-01-18T19:18:30.789Z,12.70
2019-01-18T19:22:46.037Z,12.70
2019-01-18T19:27:15.101Z,12.60
2019-01-18T19:31:53.173Z,12.03
2019-01-18T19:35:59.680Z,12.10
2019-01-18T19:40:21.164Z,12.43
2019-01-18T19:44:27.677Z,12.63
2019-01-18T19:48:52.061Z,12.33
2019-01-18T19:53:01.209Z,13.20
2019-01-18T19:57:22.460Z,13.43
2019-01-18T20:01:34.978Z,15.03
2019-01-18T20:05:44.498Z,16.27
2019-01-18T20:10:11.920Z,15.37
2019-01-18T20:14:37.272Z,15.97
2019-01-18T20:18:55.315Z,15.50
2019-01-18T20:23:18.459Z,17.73
2019-01-18T20:27:27.838Z,20.20
2019-01-18T20:31:39.889Z,27.50
2019-01-18T20:36:04.447Z,21.57
2019-01-18T20:40:17.309Z,19.00
2019-01-18T20:44:38.601Z,16.07
2019-01-18T20:48:47.914Z,14.40
2019-01-18T20:52:57.152Z,14.60
2019-01-18T20:57:24.712Z,15.33
2019-01-18T21:02:04.395Z,15.83
2019-01-18T21:06:10.916Z,14.13
2019-01-18T21:10:20.116Z,14.33
2019-01-18T21:14:44.694Z,18.33
2019-01-18T21:18:53.874Z,17.13
2019-01-18T21:23:02.972Z,14.77
2019-01-18T21:27:26.132Z,13.27
2019-01-18T21:31:44.658Z,12.40
2019-01-18T21:36:03.333Z,13.00
2019-01-18T21:40:21.900Z,14.17
2019-01-18T21:44:40.195Z,14.50
2019-01-18T21:49:16.834Z,13.63
2019-01-18T21:53:29.353Z,14.87
2019-01-18T21:57:50.156Z,15.87
2019-01-18T22:02:08.509Z,13.20
2019-01-18T22:06:23.640Z,14.37
2019-01-18T22:10:52.884Z,13.80
2019-01-18T22:15:05.042Z,14.43
2019-01-18T22:19:14.109Z,14.77
2019-01-18T22:23:20.629Z,14.43
2019-01-18T22:27:43.652Z,13.37
2019-01-18T22:31:52.620Z,13.67
2019-01-18T22:36:17.216Z,14.63
2019-01-18T22:40:46.428Z,12.97
2019-01-18T22:45:27.613Z,13.40
2019-01-18T22:49:39.984Z,15.80
2019-01-18T22:53:49.184Z,12.83
2019-01-18T22:57:58.304Z,15.00
2019-01-18T23:02:27.643Z,16.57
2019-01-18T23:06:46.077Z,15.17
2019-01-18T23:10:58.539Z,14.80
2019-01-18T23:15:19.990Z,13.73
2019-01-18T23:19:32.053Z,13.50
2019-01-18T23:24:02.643Z,18.13
2019-01-18T23:28:42.168Z,17.60
2019-01-18T23:32:51.266Z,19.43
2019-01-18T23:36:57.783Z,18.53
2019-01-18T23:41:20.928Z,21.37
2019-01-18T23:45:39.331Z,18.20
2019-01-18T23:50:03.892Z,21.63
2019-01-18T23:54:22.179Z,14.83
2019-01-18T23:58:55.968Z,11.77
